Terminal Aerodrome Forecast
Issued by NWS

Home | Current Version | Previous Version | Text Only | Print | Product List | Glossary On
Versions: 1 2 3 4 5 6 7 8 9 10 11 12
137
FTUS44 KLIX 200523
TAFGPT
TAF
KGPT 200523Z 2006/2106 33003KT P6SM SKC
     FM201800 14007KT P6SM FEW040 SCT050
     FM202100 17007KT P6SM FEW035 SCT050=

USA.gov is the U.S. government's official web portal to all federal, state and local government web resources and services.